Time;durP1;ratioP1;P1;durP2;ratioP2;P2;SDS_P1;SDS_P2;PMS_P1;PMS_P2;Temp;Humidity;BMP_temperature;BMP_pressure;BME280_temperature;BME280_humidity;BME280_pressure;Samples;Min_cycle;Max_cycle;Signal;HPM_P1;HPM_P2
2022/01/07 00:02:08;;;;;;;9.82;1.65;;;;;;;11.09;48.11;99545.09;4417240;32;20097;-69
2022/01/07 00:04:35;;;;;;;9.25;1.00;;;;;;;11.06;47.94;99537.59;4418068;32;20030;-69
2022/01/07 00:07:04;;;;;;;12.15;2.35;;;;;;;11.23;47.73;99538.81;4413680;32;20133;-69
2022/01/07 00:09:30;;;;;;;12.63;1.55;;;;;;;11.59;47.00;99524.66;4414037;32;20038;-69
2022/01/07 00:11:55;;;;;;;10.80;1.40;;;;;;;11.22;47.96;99536.47;4416982;32;20065;-69
2022/01/07 00:14:21;;;;;;;12.50;1.42;;;;;;;11.05;48.43;99526.81;4415764;32;20111;-69
2022/01/07 00:16:48;;;;;;;9.43;1.33;;;;;;;11.13;48.35;99528.03;4418505;32;20664;-69
2022/01/07 00:19:15;;;;;;;4.22;0.95;;;;;;;11.15;48.36;99533.97;4415920;32;20124;-70
2022/01/07 00:21:41;;;;;;;8.95;1.60;;;;;;;11.19;47.81;99535.37;4417886;32;20542;-69
2022/01/07 00:24:07;;;;;;;8.45;1.33;;;;;;;11.30;47.64;99529.25;4403428;32;20154;-69
2022/01/07 00:26:33;;;;;;;8.73;1.10;;;;;;;10.95;48.06;99531.66;4419827;32;20076;-69
2022/01/07 00:28:58;;;;;;;10.00;1.50;;;;;;;11.23;47.36;99533.19;4418776;32;20787;-69
2022/01/07 00:31:24;;;;;;;11.38;1.52;;;;;;;11.35;46.90;99532.22;4416720;32;20552;-69
2022/01/07 00:33:51;;;;;;;7.37;1.65;;;;;;;11.34;46.90;99535.50;4419427;32;20075;-69
2022/01/07 00:36:16;;;;;;;13.30;1.33;;;;;;;11.14;47.21;99532.44;4418054;32;20577;-70
2022/01/07 00:38:42;;;;;;;13.40;1.98;;;;;;;11.19;46.84;99526.16;4421803;32;20104;-69
2022/01/07 00:41:08;;;;;;;9.38;1.17;;;;;;;11.01;47.04;99518.50;4418427;32;20042;-69
2022/01/07 00:43:34;;;;;;;8.65;1.52;;;;;;;11.28;46.45;99520.50;4413372;32;20651;-69
2022/01/07 00:46:00;;;;;;;7.78;1.35;;;;;;;10.93;46.52;99505.25;4417522;32;20139;-69
2022/01/07 00:48:25;;;;;;;11.35;1.10;;;;;;;10.66;46.19;99503.22;4416032;32;20506;-69
2022/01/07 00:50:51;;;;;;;7.80;1.35;;;;;;;10.53;46.38;99515.88;4414749;32;20080;-69
2022/01/07 00:53:17;;;;;;;10.13;1.40;;;;;;;10.50;46.06;99494.31;4419083;32;21257;-69
2022/01/07 00:55:43;;;;;;;7.05;0.93;;;;;;;10.80;45.28;99504.63;4420346;32;20418;-69
2022/01/07 00:58:09;;;;;;;8.82;1.60;;;;;;;10.83;45.08;99500.88;4419955;32;20060;-68
2022/01/07 01:00:35;;;;;;;10.13;0.95;;;;;;;10.81;44.99;99509.00;4414878;32;20041;-69
2022/01/07 01:03:01;;;;;;;6.10;1.00;;;;;;;10.62;45.04;99496.19;4415827;32;20049;-69
2022/01/07 01:05:27;;;;;;;14.43;1.27;;;;;;;10.63;44.63;99501.34;4419394;32;20102;-69
2022/01/07 01:07:52;;;;;;;6.53;1.05;;;;;;;10.56;44.69;99492.44;4417061;32;20086;-69
2022/01/07 01:10:22;;;;;;;5.12;0.90;;;;;;;10.78;44.19;99504.31;4419341;32;20086;-69
2022/01/07 01:12:48;;;;;;;8.18;1.20;;;;;;;10.75;44.62;99494.00;4417453;32;20562;-69
2022/01/07 01:15:16;;;;;;;10.93;0.90;;;;;;;10.72;44.56;99495.72;4414913;32;20500;-69
2022/01/07 01:17:42;;;;;;;4.12;1.33;;;;;;;10.91;44.47;99483.19;4416746;32;20073;-69
2022/01/07 01:20:11;;;;;;;10.45;0.95;;;;;;;10.87;44.32;99493.84;4419651;32;20114;-69
2022/01/07 01:22:38;;;;;;;8.57;1.37;;;;;;;10.96;44.29;99495.84;4414446;32;20085;-69
2022/01/07 01:25:05;;;;;;;14.98;1.70;;;;;;;10.75;44.49;99491.19;4418093;32;20443;-69
2022/01/07 01:27:31;;;;;;;4.80;1.17;;;;;;;10.68;44.83;99495.06;4419706;32;20077;-69
2022/01/07 01:29:56;;;;;;;6.32;1.00;;;;;;;10.65;44.56;99506.50;4417066;32;20136;-69
2022/01/07 01:32:22;;;;;;;8.13;0.90;;;;;;;10.39;44.69;99491.94;4414731;32;20025;-69
2022/01/07 01:34:48;;;;;;;10.55;0.85;;;;;;;10.44;44.43;99508.22;4414415;32;20159;-69
2022/01/07 01:37:14;;;;;;;17.30;1.45;;;;;;;10.33;44.55;99509.91;4412968;32;20034;-69
2022/01/07 01:39:39;;;;;;;9.77;1.00;;;;;;;10.64;44.24;99505.72;4418217;32;20065;-69
2022/01/07 01:42:05;;;;;;;9.60;1.33;;;;;;;10.54;44.05;99508.97;4416406;32;20041;-69
2022/01/07 01:44:31;;;;;;;8.35;1.10;;;;;;;10.27;44.76;99504.13;4416042;32;20090;-69
2022/01/07 01:46:58;;;;;;;5.43;1.23;;;;;;;10.45;44.33;99518.19;4415304;32;20092;-69
2022/01/07 01:49:24;;;;;;;4.93;0.75;;;;;;;10.44;44.19;99515.84;4412956;32;20107;-69
2022/01/07 01:51:50;;;;;;;10.30;0.90;;;;;;;10.52;44.13;99514.31;4414335;32;20496;-69
2022/01/07 01:54:16;;;;;;;10.68;1.10;;;;;;;10.31;44.25;99495.53;4421258;32;20037;-69
2022/01/07 01:56:43;;;;;;;6.32;1.00;;;;;;;10.56;43.77;99501.66;4420502;32;20418;-69
2022/01/07 01:59:09;;;;;;;11.68;0.82;;;;;;;10.79;43.36;99500.22;4417318;32;20072;-69
2022/01/07 02:01:35;;;;;;;13.13;1.50;;;;;;;10.55;43.51;99502.12;4402788;32;20106;-69
2022/01/07 02:04:02;;;;;;;9.63;0.95;;;;;;;10.48;43.52;99508.03;4415082;32;20033;-69
2022/01/07 02:06:28;;;;;;;10.73;1.30;;;;;;;10.49;43.65;99489.94;4417779;32;20144;-69
2022/01/07 02:08:54;;;;;;;5.47;0.77;;;;;;;10.73;43.14;99510.53;4417059;32;21196;-69
2022/01/07 02:11:23;;;;;;;7.78;0.90;;;;;;;10.85;42.67;99510.41;4413369;32;20078;-69
2022/01/07 02:13:57;;;;;;;7.18;0.75;;;;;;;10.74;42.69;99510.06;4414952;32;20126;-69
2022/01/07 02:16:26;;;;;;;13.13;1.42;;;;;;;11.18;42.13;99507.69;4414725;32;20162;-69
2022/01/07 02:18:52;;;;;;;12.63;1.73;;;;;;;11.14;42.09;99509.91;4412622;32;21087;-69
2022/01/07 02:21:18;;;;;;;6.65;1.05;;;;;;;10.91;42.41;99514.16;4415097;32;20077;-69
2022/01/07 02:23:43;;;;;;;8.27;1.27;;;;;;;10.92;42.16;99524.16;4415387;32;20029;-70
2022/01/07 02:26:12;;;;;;;7.80;1.87;;;;;;;11.27;41.80;99513.31;4416425;32;20038;-69
2022/01/07 02:28:39;;;;;;;6.53;1.02;;;;;;;11.33;41.49;99517.84;4417977;32;20061;-69
2022/01/07 02:31:05;;;;;;;6.55;1.30;;;;;;;11.37;41.53;99521.28;4403859;32;21228;-69
2022/01/07 02:33:31;;;;;;;9.18;1.10;;;;;;;10.95;42.35;99520.37;4420379;32;20126;-69
2022/01/07 02:35:57;;;;;;;7.80;1.05;;;;;;;11.01;42.03;99512.87;4415776;32;20065;-69
2022/01/07 02:38:23;;;;;;;14.60;1.55;;;;;;;11.07;41.93;99518.66;4420398;32;20542;-69
2022/01/07 02:40:49;;;;;;;13.18;1.55;;;;;;;11.11;41.93;99513.66;4419520;32;20094;-69
2022/01/07 02:43:15;;;;;;;8.70;1.27;;;;;;;10.76;42.70;99507.59;4417992;32;20077;-69
2022/01/07 02:45:41;;;;;;;8.02;1.52;;;;;;;11.27;41.82;99518.94;4418953;32;20497;-69
2022/01/07 02:48:06;;;;;;;8.88;1.05;;;;;;;10.92;42.48;99506.50;4420210;32;20042;-69
2022/01/07 02:50:35;;;;;;;8.80;0.98;;;;;;;10.74;43.04;99509.31;4422362;32;20127;-69
2022/01/07 02:53:04;;;;;;;13.70;1.15;;;;;;;10.79;43.21;99517.91;4418375;32;20026;-70
2022/01/07 02:55:30;;;;;;;13.75;2.85;;;;;;;10.98;42.88;99502.56;4421076;32;20029;-70
2022/01/07 02:57:56;;;;;;;12.43;1.12;;;;;;;10.78;43.35;99507.91;4420022;32;20041;-70
2022/01/07 03:00:23;;;;;;;5.37;1.05;;;;;;;10.71;43.40;99499.75;4420246;32;20064;-69
2022/01/07 03:02:51;;;;;;;12.70;1.62;;;;;;;10.88;43.64;99508.66;4420960;32;20093;-69
2022/01/07 03:05:18;;;;;;;7.25;1.20;;;;;;;10.58;43.98;99506.81;4419203;32;20136;-69
2022/01/07 03:07:47;;;;;;;12.23;1.15;;;;;;;10.10;44.87;99509.22;4414417;32;20038;-69
2022/01/07 03:10:14;;;;;;;8.15;1.10;;;;;;;10.31;44.30;99501.16;4415640;32;20060;-69
2022/01/07 03:12:43;;;;;;;12.05;1.08;;;;;;;10.77;43.55;99502.75;4416835;32;20397;-69
2022/01/07 03:15:13;;;;;;;9.50;1.23;;;;;;;10.62;43.76;99496.19;4418836;32;20367;-69
2022/01/07 03:17:42;;;;;;;8.45;1.35;;;;;;;10.71;43.51;99494.12;4417718;32;20056;-70
2022/01/07 03:20:12;;;;;;;11.73;1.10;;;;;;;10.63;43.59;99480.84;4419125;32;20332;-69
2022/01/07 03:22:42;;;;;;;6.30;1.00;;;;;;;10.95;43.27;99474.59;4419681;32;20392;-69
2022/01/07 03:25:08;;;;;;;10.65;1.77;;;;;;;10.60;43.63;99476.97;4420911;32;20069;-69
2022/01/07 03:27:34;;;;;;;11.60;1.37;;;;;;;10.53;43.92;99476.50;4420750;32;20077;-69
2022/01/07 03:29:59;;;;;;;10.05;1.50;;;;;;;10.30;44.29;99483.50;4418563;32;20062;-70
2022/01/07 03:32:25;;;;;;;8.98;1.37;;;;;;;10.36;44.32;99489.28;4418354;32;20103;-69
2022/01/07 03:34:52;;;;;;;17.17;1.40;;;;;;;10.21;44.65;99477.88;4416737;32;20033;-69
2022/01/07 03:37:18;;;;;;;9.73;1.05;;;;;;;10.79;43.68;99474.91;4415482;32;20420;-69
2022/01/07 03:39:43;;;;;;;12.30;1.55;;;;;;;10.63;44.27;99470.41;4416006;32;20532;-70
2022/01/07 03:42:09;;;;;;;11.57;1.02;;;;;;;10.44;44.66;99473.69;4416111;32;20065;-70
2022/01/07 03:44:35;;;;;;;8.18;0.93;;;;;;;10.20;45.14;99470.69;4418902;32;20516;-69
2022/01/07 03:47:01;;;;;;;11.25;2.10;;;;;;;9.98;45.65;99478.44;4417699;32;20083;-70
2022/01/07 03:49:28;;;;;;;12.30;1.62;;;;;;;10.03;45.70;99456.09;4413862;32;20135;-69
2022/01/07 03:51:53;;;;;;;7.28;1.25;;;;;;;10.02;45.42;99465.00;4415537;32;20383;-70
2022/01/07 03:54:19;;;;;;;5.00;1.02;;;;;;;10.11;45.26;99462.25;4420124;32;20109;-69
2022/01/07 03:56:45;;;;;;;12.05;1.05;;;;;;;9.80;45.63;99469.94;4420664;32;20061;-69
2022/01/07 03:59:10;;;;;;;12.40;1.12;;;;;;;10.19;45.22;99466.31;4416154;32;20374;-69
2022/01/07 04:01:36;;;;;;;4.07;0.68;;;;;;;10.00;45.27;99468.28;4413337;32;20030;-69
2022/01/07 04:04:02;;;;;;;7.30;0.75;;;;;;;10.10;45.25;99471.94;4417064;32;20118;-69
2022/01/07 04:06:28;;;;;;;13.00;0.88;;;;;;;10.60;44.22;99476.97;4417931;32;20135;-69
2022/01/07 04:08:53;;;;;;;10.27;1.00;;;;;;;10.40;44.48;99478.69;4418878;32;20053;-69
2022/01/07 04:11:19;;;;;;;8.52;1.10;;;;;;;10.21;44.52;99477.88;4418073;32;20521;-69
2022/01/07 04:13:45;;;;;;;10.75;1.00;;;;;;;10.34;44.51;99458.81;4417402;32;20080;-71
2022/01/07 04:16:12;;;;;;;4.60;0.50;;;;;;;10.33;44.49;99462.09;4418265;32;20069;-70
2022/01/07 04:18:41;;;;;;;7.32;1.00;;;;;;;10.54;44.10;99458.34;4419981;32;20398;-70
2022/01/07 04:21:09;;;;;;;9.30;0.90;;;;;;;10.24;44.69;99460.06;4419273;32;20038;-70
2022/01/07 04:23:35;;;;;;;7.68;1.00;;;;;;;10.03;45.00;99446.88;4420597;32;20415;-70
2022/01/07 04:26:01;;;;;;;12.43;1.70;;;;;;;10.36;44.05;99447.09;4420616;32;20454;-70
2022/01/07 04:28:27;;;;;;;9.93;1.02;;;;;;;10.68;43.79;99438.81;4419081;32;20069;-70
2022/01/07 04:30:52;;;;;;;10.85;2.25;;;;;;;10.29;44.33;99451.03;4418705;32;20025;-70
2022/01/07 04:33:26;;;;;;;11.65;1.67;;;;;;;10.10;44.81;99453.00;4418786;32;20033;-70
2022/01/07 04:35:54;;;;;;;8.93;1.02;;;;;;;10.15;44.90;99453.66;4418752;32;20053;-70
2022/01/07 04:38:20;;;;;;;7.07;1.00;;;;;;;10.22;44.85;99456.16;4419739;32;20063;-71
2022/01/07 04:40:46;;;;;;;9.23;0.90;;;;;;;10.25;44.77;99436.34;4418341;32;21085;-71
2022/01/07 04:43:12;;;;;;;5.53;0.73;;;;;;;10.26;44.75;99448.34;4416280;32;20026;-71
2022/01/07 04:45:38;;;;;;;8.30;1.08;;;;;;;10.53;44.38;99451.19;4417380;32;20088;-71
2022/01/07 04:48:04;;;;;;;11.15;1.25;;;;;;;10.64;43.91;99448.66;4414668;32;20087;-71
2022/01/07 04:50:30;;;;;;;6.62;1.30;;;;;;;10.59;44.13;99449.31;4416081;32;20117;-71
2022/01/07 04:52:57;;;;;;;14.63;1.00;;;;;;;10.73;43.71;99449.44;4417832;32;20085;-71
2022/01/07 04:55:26;;;;;;;12.60;1.55;;;;;;;10.70;43.79;99452.41;4418283;32;20096;-71
2022/01/07 04:57:52;;;;;;;7.53;1.00;;;;;;;10.69;44.01;99453.66;4419264;32;20034;-71
2022/01/07 05:00:20;;;;;;;6.43;0.88;;;;;;;10.68;43.73;99460.56;4417662;32;20069;-70
2022/01/07 05:02:46;;;;;;;11.43;1.50;;;;;;;10.68;43.95;99460.56;4415664;32;20025;-70
2022/01/07 05:05:13;;;;;;;7.03;0.85;;;;;;;10.36;44.14;99461.94;4417522;32;20117;-70
2022/01/07 05:07:39;;;;;;;10.55;1.25;;;;;;;10.54;43.97;99455.53;4419996;32;20683;-70
2022/01/07 05:10:07;;;;;;;9.10;0.90;;;;;;;10.59;44.15;99454.94;4417285;32;20081;-70
2022/01/07 05:12:33;;;;;;;9.20;1.00;;;;;;;10.42;44.52;99454.47;4418672;32;20425;-70
2022/01/07 05:14:59;;;;;;;10.60;1.27;;;;;;;10.28;44.53;99455.06;4419472;32;20077;-70
2022/01/07 05:17:24;;;;;;;5.97;0.88;;;;;;;9.88;45.32;99445.94;4419082;32;20074;-70
2022/01/07 05:19:50;;;;;;;10.38;0.98;;;;;;;10.18;44.78;99447.88;4417580;32;20067;-70
2022/01/07 05:22:16;;;;;;;7.93;1.20;;;;;;;10.15;44.71;99445.22;4417273;32;20099;-70
2022/01/07 05:24:42;;;;;;;10.05;1.27;;;;;;;9.90;45.04;99444.22;4407533;32;20042;-70
2022/01/07 05:27:07;;;;;;;6.87;1.02;;;;;;;10.19;44.52;99451.47;4418608;32;21730;-70
2022/01/07 05:29:35;;;;;;;9.20;0.98;;;;;;;10.25;44.41;99449.59;4419320;32;20056;-70
2022/01/07 05:32:04;;;;;;;12.10;2.45;;;;;;;10.49;43.76;99453.38;4416221;32;20426;-70
2022/01/07 05:34:29;;;;;;;14.20;1.25;;;;;;;10.65;43.66;99455.88;4419412;32;20070;-70
2022/01/07 05:36:56;;;;;;;3.53;1.02;;;;;;;10.43;43.67;99461.63;4403640;32;20034;-70
2022/01/07 05:39:21;;;;;;;9.93;1.12;;;;;;;10.48;43.73;99457.41;4418696;32;20034;-70
2022/01/07 05:41:47;;;;;;;16.15;0.90;;;;;;;10.53;43.56;99457.59;4413252;32;20044;-70
2022/01/07 05:44:13;;;;;;;8.40;1.08;;;;;;;9.90;44.73;99457.47;4403880;32;20069;-70
2022/01/07 05:46:40;;;;;;;11.88;1.17;;;;;;;9.91;44.76;99459.81;4419800;32;20341;-70
2022/01/07 05:49:05;;;;;;;11.52;1.10;;;;;;;9.93;44.81;99456.53;4416609;32;20087;-70
2022/01/07 05:51:31;;;;;;;6.60;1.10;;;;;;;9.85;44.89;99456.06;4416548;32;20391;-70
2022/01/07 05:53:57;;;;;;;3.90;0.77;;;;;;;10.04;44.42;99471.72;4420173;32;20063;-70
2022/01/07 05:56:23;;;;;;;7.80;1.30;;;;;;;9.69;45.29;99470.38;4418515;32;20042;-70
2022/01/07 05:58:49;;;;;;;5.78;0.80;;;;;;;9.89;44.87;99472.78;4418250;32;20065;-70
2022/01/07 06:01:14;;;;;;;9.75;1.35;;;;;;;9.84;44.95;99476.19;4419044;32;20095;-70
2022/01/07 06:03:41;;;;;;;7.47;0.88;;;;;;;9.83;44.97;99477.44;4417503;32;20060;-70
2022/01/07 06:06:07;;;;;;;8.57;1.20;;;;;;;10.17;44.33;99482.06;4415516;32;20073;-70
2022/01/07 06:08:34;;;;;;;7.12;0.98;;;;;;;10.13;44.33;99494.25;4416084;32;20375;-70
2022/01/07 06:11:00;;;;;;;12.57;1.05;;;;;;;10.14;44.46;99495.03;4412465;32;20050;-70
2022/01/07 06:13:25;;;;;;;9.18;1.02;;;;;;;9.97;44.76;99491.69;4400935;32;20104;-70
2022/01/07 06:15:51;;;;;;;17.52;0.98;;;;;;;10.30;43.59;99503.19;4419988;32;20361;-70
2022/01/07 06:18:17;;;;;;;5.12;0.85;;;;;;;10.18;43.51;99506.16;4416221;32;20402;-70
2022/01/07 06:20:44;;;;;;;9.68;1.02;;;;;;;10.28;43.48;99508.47;4415368;32;20453;-70
2022/01/07 06:23:09;;;;;;;5.55;0.98;;;;;;;10.32;43.23;99494.28;4419717;32;20077;-70
2022/01/07 06:25:35;;;;;;;8.70;1.20;;;;;;;10.23;43.21;99495.06;4418860;32;20061;-70
2022/01/07 06:28:01;;;;;;;12.23;0.88;;;;;;;10.26;43.21;99482.87;4416128;32;20064;-70
2022/01/07 06:30:28;;;;;;;10.15;0.88;;;;;;;10.04;43.63;99470.94;4416475;32;20419;-70
2022/01/07 06:32:53;;;;;;;10.55;1.45;;;;;;;10.22;43.24;99476.63;4415657;32;20151;-70
2022/01/07 06:35:20;;;;;;;12.52;1.05;;;;;;;10.26;43.23;99468.03;4418523;32;20069;-70
2022/01/07 06:37:46;;;;;;;7.85;0.98;;;;;;;10.16;43.40;99469.28;4416635;32;20091;-70
2022/01/07 06:40:13;;;;;;;6.53;0.77;;;;;;;9.83;44.20;99460.59;4412786;32;20483;-70
2022/01/07 06:42:39;;;;;;;11.38;1.35;;;;;;;10.01;43.89;99472.63;4415746;32;20152;-70
2022/01/07 06:45:06;;;;;;;6.05;1.10;;;;;;;9.77;44.09;99468.84;4415184;32;20528;-70
2022/01/07 06:47:33;;;;;;;9.57;0.77;;;;;;;9.96;44.03;99480.91;4417584;32;20037;-70
2022/01/07 06:49:58;;;;;;;20.40;1.62;;;;;;;10.05;43.83;99462.06;4417322;32;20085;-70
2022/01/07 06:52:24;;;;;;;9.52;1.60;;;;;;;10.21;43.34;99471.47;4415798;32;20404;-70
2022/01/07 06:54:50;;;;;;;9.52;1.20;;;;;;;9.76;44.05;99461.66;4414500;32;20551;-70
2022/01/07 06:57:16;;;;;;;5.57;0.95;;;;;;;10.07;43.67;99464.44;4418021;32;20041;-70
2022/01/07 06:59:44;;;;;;;9.90;1.27;;;;;;;10.12;43.58;99471.47;4419604;32;20127;-70
2022/01/07 07:02:11;;;;;;;9.50;1.25;;;;;;;9.98;43.78;99461.56;4416966;32;20059;-70
2022/01/07 07:04:36;;;;;;;5.57;0.95;;;;;;;9.76;44.32;99464.47;4413482;32;20070;-70
2022/01/07 07:07:02;;;;;;;10.80;1.42;;;;;;;9.68;44.29;99451.19;4416474;32;20073;-70
2022/01/07 07:09:28;;;;;;;9.10;1.37;;;;;;;9.86;44.02;99446.41;4401284;32;20119;-70
2022/01/07 07:11:55;;;;;;;11.50;1.08;;;;;;;9.59;44.54;99456.75;4415677;32;20331;-71
2022/01/07 07:14:20;;;;;;;11.52;0.93;;;;;;;9.72;44.37;99451.81;4415985;32;20090;-69
2022/01/07 07:16:46;;;;;;;11.25;1.05;;;;;;;9.75;44.46;99459.31;4414881;32;20084;-69
2022/01/07 07:19:12;;;;;;;10.27;1.08;;;;;;;9.62;44.67;99476.28;4418780;32;20108;-69
2022/01/07 07:21:37;;;;;;;9.63;1.58;;;;;;;9.47;44.85;99494.94;4403163;32;20176;-70
2022/01/07 07:24:04;;;;;;;7.85;0.88;;;;;;;9.65;44.52;99503.44;4422648;32;20064;-69
2022/01/07 07:26:29;;;;;;;6.15;0.77;;;;;;;9.80;44.39;99540.97;4419450;32;20131;-69
2022/01/07 07:28:55;;;;;;;9.82;0.90;;;;;;;9.66;44.80;99523.88;4419176;32;20078;-70
2022/01/07 07:31:21;;;;;;;3.10;0.65;;;;;;;9.94;44.42;99508.69;4417823;32;20112;-70
2022/01/07 07:36:38;;;;;;;5.75;0.90;;;;;;;10.24;44.47;99529.59;3972918;32;15143576;-70
2022/01/07 07:39:07;;;;;;;5.75;0.77;;;;;;;10.24;44.47;99529.59;4430060;32;20045;-70
2022/01/07 07:41:35;;;;;;;5.00;0.60;;;;;;;10.29;43.93;99517.72;4425578;32;20093;-70
2022/01/07 07:44:01;;;;;;;4.12;1.00;;;;;;;9.86;44.71;99521.47;4422319;32;20029;-70
2022/01/07 07:46:30;;;;;;;9.13;0.82;;;;;;;10.24;44.08;99519.09;4426647;32;20076;-70
2022/01/07 07:48:58;;;;;;;5.47;0.65;;;;;;;10.36;44.26;99520.22;4423809;32;20073;-70
2022/01/07 07:51:23;;;;;;;6.80;0.90;;;;;;;10.26;44.88;99519.44;4423388;32;20234;-69
2022/01/07 07:53:50;;;;;;;4.90;0.77;;;;;;;10.02;45.61;99524.81;4427500;32;20097;-70
2022/01/07 07:56:16;;;;;;;5.43;0.73;;;;;;;9.94;46.04;99506.66;4426784;32;20073;-69
2022/01/07 07:58:43;;;;;;;1.62;0.45;;;;;;;9.77;46.70;99524.25;4423996;32;20512;-69
2022/01/07 08:01:10;;;;;;;2.05;0.43;;;;;;;10.01;46.80;99526.03;4418357;32;20033;-69
2022/01/07 08:03:36;;;;;;;3.62;0.80;;;;;;;9.22;49.16;99525.22;4423205;32;20405;-70
2022/01/07 08:06:02;;;;;;;6.45;0.80;;;;;;;9.81;47.83;99536.91;4423677;32;20151;-69
2022/01/07 08:08:28;;;;;;;2.85;0.70;;;;;;;9.57;48.78;99535.84;4421931;32;20406;-70
2022/01/07 08:10:57;;;;;;;4.25;0.65;;;;;;;9.23;49.46;99550.03;4426460;32;20037;-70
2022/01/07 08:13:31;;;;;;;3.00;0.55;;;;;;;9.63;48.80;99544.47;4425563;32;20146;-70
2022/01/07 08:15:58;;;;;;;5.03;0.60;;;;;;;9.93;48.25;99540.84;4422565;32;20080;-70
2022/01/07 08:18:26;;;;;;;0.75;0.40;;;;;;;10.23;48.27;99554.09;4425969;32;20502;-69
2022/01/07 08:20:52;;;;;;;1.48;0.43;;;;;;;9.94;48.60;99562.06;4422300;32;20173;-69
2022/01/07 08:23:18;;;;;;;5.50;0.50;;;;;;;10.16;48.13;99553.59;4425562;32;20486;-70
2022/01/07 08:25:46;;;;;;;4.43;0.65;;;;;;;10.02;48.42;99552.91;4422579;32;20232;-70
2022/01/07 08:28:13;;;;;;;6.07;0.75;;;;;;;10.12;48.35;99545.31;4427300;32;20033;-69
2022/01/07 08:36:15;;;;;;;4.53;0.80;;;;;;;10.30;47.17;99553.78;4423246;32;20116;-70
2022/01/07 08:38:41;;;;;;;7.53;1.10;;;;;;;9.85;47.62;99545.22;4420686;32;20186;-70
2022/01/07 08:41:07;;;;;;;6.32;1.77;;;;;;;10.18;46.46;99537.06;4424217;32;20327;-70
2022/01/07 08:43:33;;;;;;;7.35;1.00;;;;;;;10.10;46.48;99545.78;4423658;32;20253;-70
2022/01/07 08:46:00;;;;;;;6.70;0.80;;;;;;;10.09;46.41;99532.97;4419647;32;20412;-70
2022/01/07 08:48:27;;;;;;;7.03;1.12;;;;;;;10.25;46.12;99531.94;4412883;32;20070;-70
2022/01/07 08:50:53;;;;;;;8.35;1.48;;;;;;;10.25;45.88;99533.94;4411402;32;20070;-70
2022/01/07 08:53:20;;;;;;;3.40;0.80;;;;;;;10.21;45.71;99547.38;4409077;32;20126;-70
2022/01/07 08:55:48;;;;;;;5.60;0.75;;;;;;;10.13;45.88;99544.09;4417193;32;20588;-70
2022/01/07 08:58:13;;;;;;;13.02;1.33;;;;;;;10.28;45.19;99538.66;4414474;32;20065;-70
2022/01/07 09:00:40;;;;;;;8.43;1.42;;;;;;;10.64;44.51;99545.09;4411975;32;20603;-70
2022/01/07 09:03:06;;;;;;;9.57;1.33;;;;;;;10.17;44.69;99546.72;4411641;32;20128;-70
2022/01/07 09:05:32;;;;;;;6.97;0.70;;;;;;;10.60;43.97;99544.47;4412245;32;20361;-70
2022/01/07 09:07:58;;;;;;;4.78;0.80;;;;;;;10.57;43.81;99536.19;4414011;32;20431;-70
2022/01/07 09:10:24;;;;;;;5.32;1.40;;;;;;;10.39;44.05;99542.56;4412989;32;20065;-71
2022/01/07 09:12:51;;;;;;;12.65;0.90;;;;;;;10.98;43.47;99556.03;4399076;32;20085;-71
2022/01/07 09:15:17;;;;;;;7.12;0.93;;;;;;;11.09;43.25;99566.84;4374218;32;20140;-71
2022/01/07 09:17:43;;;;;;;6.50;1.10;;;;;;;11.18;43.40;99584.50;4378500;32;20150;-69
2022/01/07 09:20:10;;;;;;;9.60;1.23;;;;;;;11.38;43.88;99581.19;4376195;32;20073;-69
2022/01/07 09:22:36;;;;;;;4.00;0.90;;;;;;;10.98;45.18;99603.13;4383095;32;20108;-68
2022/01/07 09:25:04;;;;;;;6.07;0.82;;;;;;;10.67;46.40;99599.63;4386715;32;20513;-69
2022/01/07 09:27:31;;;;;;;8.07;0.93;;;;;;;10.69;47.28;99592.31;4381848;32;20070;-69
2022/01/07 09:29:57;;;;;;;7.40;0.90;;;;;;;10.04;48.95;99611.47;4398093;32;20105;-68
2022/01/07 09:32:23;;;;;;;9.82;1.60;;;;;;;10.06;49.01;99606.16;4378649;32;20069;-68
2022/01/07 09:34:48;;;;;;;10.88;1.45;;;;;;;9.88;49.95;99600.47;4377703;32;20127;-69
2022/01/07 09:37:14;;;;;;;8.82;1.48;;;;;;;9.79;50.72;99618.06;4394407;32;20146;-69
2022/01/07 09:39:40;;;;;;;7.22;1.30;;;;;;;9.32;51.55;99619.47;4383014;32;21042;-71
2022/01/07 09:42:08;;;;;;;10.57;1.65;;;;;;;9.13;52.03;99632.59;4384330;32;21010;-71
2022/01/07 09:44:38;;;;;;;10.80;2.00;;;;;;;9.58;51.53;99607.63;4379811;32;20064;-70
2022/01/07 09:47:04;;;;;;;4.53;1.20;;;;;;;9.46;51.77;99628.16;4381343;32;21537;-70
2022/01/07 09:49:33;;;;;;;11.80;1.20;;;;;;;9.01;53.12;99627.03;4377529;32;20103;-70
2022/01/07 09:52:01;;;;;;;6.20;1.25;;;;;;;9.29;52.23;99609.94;4379327;32;20211;-71
2022/01/07 09:54:27;;;;;;;2.90;1.12;;;;;;;9.28;52.38;99613.22;4386828;32;20096;-71
2022/01/07 09:56:53;;;;;;;4.30;1.02;;;;;;;8.99;52.85;99613.44;4393113;32;20069;-70
2022/01/07 09:59:19;;;;;;;9.68;1.62;;;;;;;8.63;53.96;99607.53;4410940;32;20074;-70
2022/01/07 10:04:41;;;;;;;14.43;1.98;;;;;;;9.60;52.90;99610.78;3928711;32;15076763;-70
2022/01/07 10:07:26;;;;;;;12.65;1.90;;;;;;;9.60;52.90;99610.78;4378551;32;20076;-71
2022/01/07 10:15:28;;;;;;;8.55;0.93;;;;;;;9.87;51.01;99630.59;3931546;32;15021290;-70
2022/01/07 10:18:11;;;;;;;9.48;1.27;;;;;;;10.26;50.67;99645.16;4404128;32;20955;-71
2022/01/07 10:23:23;;;;;;;14.38;1.40;;;;;;;10.24;49.53;99637.19;3941824;32;15023896;-71
2022/01/07 10:25:56;;;;;;;8.60;1.35;;;;;;;10.38;49.65;99624.59;4392311;32;20097;-71
2022/01/07 10:28:30;;;;;;;11.30;1.33;;;;;;;10.40;49.79;99622.88;4401872;32;20077;-70
2022/01/07 10:30:56;;;;;;;6.25;1.67;;;;;;;10.58;50.05;99628.53;4385427;32;20662;-71
2022/01/07 10:33:35;;;;;;;5.85;2.33;;;;;;;10.31;50.41;99624.88;4412327;32;20069;-70
2022/01/07 10:38:54;;;;;;;8.10;1.75;;;;;;;10.66;48.77;99648.72;3933402;31;15015631;-71
2022/01/07 10:41:21;;;;;;;4.62;1.50;;;;;;;10.69;49.15;99639.34;4382313;32;20127;-71
2022/01/07 10:43:48;;;;;;;10.35;2.25;;;;;;;10.24;49.76;99640.00;4393704;32;20150;-70
2022/01/07 10:48:56;;;;;;;10.13;2.45;;;;;;;11.08;48.57;99642.06;3894855;31;15706306;-70
2022/01/07 10:51:28;;;;;;;13.15;2.65;;;;;;;10.80;48.82;99642.50;4355844;32;20480;-71
2022/01/07 10:59:10;;;;;;;11.25;1.60;;;;;;;11.60;46.51;99655.06;3928765;32;15070250;-71
2022/01/07 11:01:39;;;;;;;11.18;2.05;;;;;;;11.60;46.51;99655.06;4380209;32;20137;-71
2022/01/07 11:04:07;;;;;;;4.25;1.52;;;;;;;10.43;49.14;99663.34;4370914;32;20070;-70
2022/01/07 11:06:35;;;;;;;8.27;1.77;;;;;;;10.78;48.62;99661.88;4370694;32;20766;-70
2022/01/07 11:09:06;;;;;;;11.93;2.40;;;;;;;10.94;48.38;99639.06;4379258;32;20112;-71
2022/01/07 11:11:33;;;;;;;8.77;1.87;;;;;;;11.42;47.80;99638.16;4377148;32;20638;-70
2022/01/07 11:14:06;;;;;;;4.72;1.30;;;;;;;11.41;46.76;99645.81;4371096;32;20447;-70
2022/01/07 11:16:32;;;;;;;8.18;1.80;;;;;;;11.76;46.44;99638.59;4372186;32;20144;-70
2022/01/07 11:18:59;;;;;;;5.03;1.30;;;;;;;11.26;46.53;99639.25;4379473;32;20547;-70
2022/01/07 11:21:25;;;;;;;14.32;2.35;;;;;;;10.87;47.03;99614.84;4378423;32;20092;-70
2022/01/07 11:23:50;;;;;;;7.15;2.08;;;;;;;10.98;47.17;99623.59;4376700;32;20487;-70
2022/01/07 11:26:17;;;;;;;15.82;2.37;;;;;;;10.83;47.63;99607.81;4376590;32;20085;-70
2022/01/07 11:29:00;;;;;;;10.40;2.20;;;;;;;11.48;46.52;99602.47;4391326;32;20096;-70
2022/01/07 11:31:27;;;;;;;9.13;2.40;;;;;;;11.73;45.66;99591.63;4415721;32;20348;-70
2022/01/07 11:36:57;;;;;;;11.55;2.45;;;;;;;10.85;46.40;99602.47;3967817;32;15022681;-69
2022/01/07 11:39:22;;;;;;;10.30;2.10;;;;;;;10.85;46.40;99602.47;4403561;32;20119;-69
2022/01/07 11:41:55;;;;;;;13.77;3.17;;;;;;;10.62;46.89;99620.75;4389117;32;20133;-70
2022/01/07 11:44:25;;;;;;;10.45;2.33;;;;;;;11.06;46.24;99638.16;4418983;32;20085;-70
2022/01/07 11:46:51;;;;;;;11.05;2.58;;;;;;;10.54;48.70;99658.84;4420779;32;20117;-69
2022/01/07 11:49:35;;;;;;;8.73;2.17;;;;;;;10.24;49.74;99642.03;4421420;32;20126;-70
2022/01/07 11:52:29;;;;;;;8.75;1.77;;;;;;;10.59;49.70;99651.84;4421058;32;20554;-70
2022/01/07 11:55:20;;;;;;;4.75;1.50;;;;;;;10.32;50.05;99663.00;4421203;32;20723;-69
2022/01/07 11:57:48;;;;;;;7.40;2.25;;;;;;;10.50;49.69;99649.00;4422651;32;20041;-70
2022/01/07 12:00:14;;;;;;;11.38;4.30;;;;;;;10.52;50.07;99654.94;4423395;32;20104;-70
2022/01/07 12:03:01;;;;;;;6.25;2.15;;;;;;;10.44;50.53;99660.09;4420109;32;20568;-70
2022/01/07 12:05:29;;;;;;;11.02;2.53;;;;;;;10.50;49.90;99666.66;4424807;32;20067;-70